sensor_id;sensor_type;location;lat;lon;timestamp;P1;durP1;ratioP1;P2;durP2;ratioP2
43014;SDS011;28637;50.554;7.032;2023-04-02T00:01:36;2.53;;;1.10;;
43014;SDS011;28637;50.554;7.032;2023-04-02T00:06:37;1.17;;;1.08;;
43014;SDS011;28637;50.554;7.032;2023-04-02T00:11:44;1.33;;;1.23;;
43014;SDS011;28637;50.554;7.032;2023-04-02T00:16:47;3.15;;;1.30;;
43014;SDS011;28637;50.554;7.032;2023-04-02T00:21:48;1.23;;;1.20;;
43014;SDS011;28637;50.554;7.032;2023-04-02T00:26:51;1.45;;;1.30;;
43014;SDS011;28637;50.554;7.032;2023-04-02T00:31:54;1.40;;;1.30;;
43014;SDS011;28637;50.554;7.032;2023-04-02T00:36:58;1.48;;;1.25;;
43014;SDS011;28637;50.554;7.032;2023-04-02T00:42:00;1.27;;;1.17;;
43014;SDS011;28637;50.554;7.032;2023-04-02T00:47:16;1.30;;;1.20;;
43014;SDS011;28637;50.554;7.032;2023-04-02T00:52:21;1.30;;;1.20;;
43014;SDS011;28637;50.554;7.032;2023-04-02T00:57:24;2.55;;;1.40;;
43014;SDS011;28637;50.554;7.032;2023-04-02T01:02:29;2.35;;;1.30;;
43014;SDS011;28637;50.554;7.032;2023-04-02T01:07:35;1.38;;;1.27;;
43014;SDS011;28637;50.554;7.032;2023-04-02T01:23:33;2.00;;;1.80;;
43014;SDS011;28637;50.554;7.032;2023-04-02T01:34:03;4.55;;;3.50;;
43014;SDS011;28637;50.554;7.032;2023-04-02T01:39:17;3.83;;;3.30;;
43014;SDS011;28637;50.554;7.032;2023-04-02T01:44:37;4.60;;;3.67;;
43014;SDS011;28637;50.554;7.032;2023-04-02T01:49:42;4.93;;;3.72;;
43014;SDS011;28637;50.554;7.032;2023-04-02T01:54:45;6.22;;;4.60;;
43014;SDS011;28637;50.554;7.032;2023-04-02T01:59:46;5.30;;;4.32;;
43014;SDS011;28637;50.554;7.032;2023-04-02T02:04:47;5.37;;;4.47;;
43014;SDS011;28637;50.554;7.032;2023-04-02T02:09:48;6.07;;;4.60;;
43014;SDS011;28637;50.554;7.032;2023-04-02T02:14:49;6.13;;;4.47;;
43014;SDS011;28637;50.554;7.032;2023-04-02T02:24:55;5.35;;;4.15;;
43014;SDS011;28637;50.554;7.032;2023-04-02T02:30:03;6.50;;;4.30;;
43014;SDS011;28637;50.554;7.032;2023-04-02T02:35:11;5.70;;;4.47;;
43014;SDS011;28637;50.554;7.032;2023-04-02T02:40:23;7.45;;;5.57;;
43014;SDS011;28637;50.554;7.032;2023-04-02T02:45:31;8.07;;;6.13;;
43014;SDS011;28637;50.554;7.032;2023-04-02T02:50:37;6.55;;;4.72;;
43014;SDS011;28637;50.554;7.032;2023-04-02T02:55:40;6.60;;;4.55;;
43014;SDS011;28637;50.554;7.032;2023-04-02T03:00:40;5.43;;;3.67;;
43014;SDS011;28637;50.554;7.032;2023-04-02T03:05:42;3.97;;;3.40;;
43014;SDS011;28637;50.554;7.032;2023-04-02T03:10:55;3.20;;;2.90;;
43014;SDS011;28637;50.554;7.032;2023-04-02T03:21:24;3.77;;;3.37;;
43014;SDS011;28637;50.554;7.032;2023-04-02T03:26:35;5.45;;;3.53;;
43014;SDS011;28637;50.554;7.032;2023-04-02T03:31:52;4.90;;;4.15;;
43014;SDS011;28637;50.554;7.032;2023-04-02T03:37:01;5.20;;;4.43;;
43014;SDS011;28637;50.554;7.032;2023-04-02T03:42:14;5.13;;;4.22;;
43014;SDS011;28637;50.554;7.032;2023-04-02T03:47:39;5.05;;;3.58;;
43014;SDS011;28637;50.554;7.032;2023-04-02T03:52:44;4.60;;;3.38;;
43014;SDS011;28637;50.554;7.032;2023-04-02T03:57:57;5.67;;;4.40;;
43014;SDS011;28637;50.554;7.032;2023-04-02T04:08:38;6.00;;;4.90;;
43014;SDS011;28637;50.554;7.032;2023-04-02T04:13:50;6.20;;;4.82;;
43014;SDS011;28637;50.554;7.032;2023-04-02T04:19:38;5.90;;;4.75;;
43014;SDS011;28637;50.554;7.032;2023-04-02T04:24:36;8.13;;;5.57;;
43014;SDS011;28637;50.554;7.032;2023-04-02T04:34:51;6.00;;;4.68;;
43014;SDS011;28637;50.554;7.032;2023-04-02T04:39:57;4.68;;;3.92;;
43014;SDS011;28637;50.554;7.032;2023-04-02T04:55:52;5.65;;;4.10;;
43014;SDS011;28637;50.554;7.032;2023-04-02T05:11:32;5.03;;;4.05;;
43014;SDS011;28637;50.554;7.032;2023-04-02T05:16:44;5.25;;;4.05;;
43014;SDS011;28637;50.554;7.032;2023-04-02T05:21:56;6.10;;;4.25;;
43014;SDS011;28637;50.554;7.032;2023-04-02T05:27:25;4.03;;;3.50;;
43014;SDS011;28637;50.554;7.032;2023-04-02T05:32:39;3.20;;;2.75;;
43014;SDS011;28637;50.554;7.032;2023-04-02T05:37:47;3.22;;;2.72;;
43014;SDS011;28637;50.554;7.032;2023-04-02T05:42:48;3.63;;;3.30;;
43014;SDS011;28637;50.554;7.032;2023-04-02T05:47:52;5.22;;;4.15;;
43014;SDS011;28637;50.554;7.032;2023-04-02T05:53:12;4.60;;;3.85;;
43014;SDS011;28637;50.554;7.032;2023-04-02T05:58:23;4.93;;;4.10;;
43014;SDS011;28637;50.554;7.032;2023-04-02T06:03:27;5.25;;;4.50;;
43014;SDS011;28637;50.554;7.032;2023-04-02T06:08:37;6.20;;;5.03;;
43014;SDS011;28637;50.554;7.032;2023-04-02T06:13:42;6.50;;;5.32;;
43014;SDS011;28637;50.554;7.032;2023-04-02T06:18:43;6.10;;;4.97;;
43014;SDS011;28637;50.554;7.032;2023-04-02T06:34:15;8.40;;;6.60;;
43014;SDS011;28637;50.554;7.032;2023-04-02T06:39:19;7.28;;;5.63;;
43014;SDS011;28637;50.554;7.032;2023-04-02T06:44:22;7.63;;;5.70;;
43014;SDS011;28637;50.554;7.032;2023-04-02T06:54:51;6.53;;;5.28;;
43014;SDS011;28637;50.554;7.032;2023-04-02T06:59:52;6.33;;;4.90;;
43014;SDS011;28637;50.554;7.032;2023-04-02T07:04:55;6.40;;;4.67;;
43014;SDS011;28637;50.554;7.032;2023-04-02T07:10:01;5.53;;;4.57;;
43014;SDS011;28637;50.554;7.032;2023-04-02T07:15:02;5.50;;;3.83;;
43014;SDS011;28637;50.554;7.032;2023-04-02T07:20:03;4.57;;;3.77;;
43014;SDS011;28637;50.554;7.032;2023-04-02T07:25:04;4.77;;;3.70;;
43014;SDS011;28637;50.554;7.032;2023-04-02T07:30:05;4.60;;;4.00;;
43014;SDS011;28637;50.554;7.032;2023-04-02T07:35:07;4.85;;;3.88;;
43014;SDS011;28637;50.554;7.032;2023-04-02T07:40:18;4.60;;;3.97;;
43014;SDS011;28637;50.554;7.032;2023-04-02T07:45:21;5.68;;;4.22;;
43014;SDS011;28637;50.554;7.032;2023-04-02T07:50:22;5.67;;;3.87;;
43014;SDS011;28637;50.554;7.032;2023-04-02T07:55:23;3.80;;;3.40;;
43014;SDS011;28637;50.554;7.032;2023-04-02T08:00:24;4.23;;;3.40;;
43014;SDS011;28637;50.554;7.032;2023-04-02T08:05:26;4.22;;;3.50;;
43014;SDS011;28637;50.554;7.032;2023-04-02T08:10:26;3.60;;;3.10;;
43014;SDS011;28637;50.554;7.032;2023-04-02T08:15:27;3.10;;;2.73;;
43014;SDS011;28637;50.554;7.032;2023-04-02T08:20:28;3.40;;;2.85;;
43014;SDS011;28637;50.554;7.032;2023-04-02T08:25:28;3.60;;;3.30;;
43014;SDS011;28637;50.554;7.032;2023-04-02T08:30:29;5.80;;;4.20;;
43014;SDS011;28637;50.554;7.032;2023-04-02T08:35:30;6.03;;;4.18;;
43014;SDS011;28637;50.554;7.032;2023-04-02T08:40:32;4.30;;;3.90;;
43014;SDS011;28637;50.554;7.032;2023-04-02T08:45:41;5.18;;;4.22;;
43014;SDS011;28637;50.554;7.032;2023-04-02T08:51:05;5.53;;;4.50;;
43014;SDS011;28637;50.554;7.032;2023-04-02T08:56:20;6.23;;;4.63;;
43014;SDS011;28637;50.554;7.032;2023-04-02T09:06:47;5.53;;;4.90;;
43014;SDS011;28637;50.554;7.032;2023-04-02T09:11:59;5.85;;;5.22;;
43014;SDS011;28637;50.554;7.032;2023-04-02T09:17:03;7.82;;;5.88;;
43014;SDS011;28637;50.554;7.032;2023-04-02T09:22:22;7.95;;;6.18;;
43014;SDS011;28637;50.554;7.032;2023-04-02T09:27:29;8.10;;;6.53;;
43014;SDS011;28637;50.554;7.032;2023-04-02T09:43:16;11.13;;;7.93;;
43014;SDS011;28637;50.554;7.032;2023-04-02T09:48:23;10.13;;;6.97;;
43014;SDS011;28637;50.554;7.032;2023-04-02T09:53:34;7.80;;;6.72;;
43014;SDS011;28637;50.554;7.032;2023-04-02T09:58:37;9.02;;;6.60;;
43014;SDS011;28637;50.554;7.032;2023-04-02T10:03:40;13.35;;;8.63;;
43014;SDS011;28637;50.554;7.032;2023-04-02T10:08:42;8.95;;;5.93;;
43014;SDS011;28637;50.554;7.032;2023-04-02T10:18:56;9.63;;;6.70;;
43014;SDS011;28637;50.554;7.032;2023-04-02T10:24:14;10.07;;;6.63;;
43014;SDS011;28637;50.554;7.032;2023-04-02T10:34:33;8.30;;;6.32;;
43014;SDS011;28637;50.554;7.032;2023-04-02T10:39:46;8.15;;;6.50;;
43014;SDS011;28637;50.554;7.032;2023-04-02T10:50:18;9.40;;;7.18;;
43014;SDS011;28637;50.554;7.032;2023-04-02T10:55:27;8.13;;;6.38;;
43014;SDS011;28637;50.554;7.032;2023-04-02T11:00:31;8.65;;;6.38;;
43014;SDS011;28637;50.554;7.032;2023-04-02T11:05:40;9.15;;;6.55;;
43014;SDS011;28637;50.554;7.032;2023-04-02T11:10:58;9.98;;;6.82;;
43014;SDS011;28637;50.554;7.032;2023-04-02T11:16:03;9.23;;;6.43;;
43014;SDS011;28637;50.554;7.032;2023-04-02T11:21:07;9.73;;;7.47;;
43014;SDS011;28637;50.554;7.032;2023-04-02T11:26:40;11.35;;;8.27;;
43014;SDS011;28637;50.554;7.032;2023-04-02T11:31:46;10.55;;;7.07;;
43014;SDS011;28637;50.554;7.032;2023-04-02T11:47:19;9.18;;;6.72;;
43014;SDS011;28637;50.554;7.032;2023-04-02T11:52:29;10.55;;;6.65;;
43014;SDS011;28637;50.554;7.032;2023-04-02T11:57:39;8.65;;;6.30;;
43014;SDS011;28637;50.554;7.032;2023-04-02T12:18:43;12.90;;;7.40;;
43014;SDS011;28637;50.554;7.032;2023-04-02T12:23:46;10.80;;;6.78;;
43014;SDS011;28637;50.554;7.032;2023-04-02T12:28:48;8.50;;;6.28;;
43014;SDS011;28637;50.554;7.032;2023-04-02T12:33:50;15.60;;;6.60;;
43014;SDS011;28637;50.554;7.032;2023-04-02T12:38:52;7.97;;;6.30;;
43014;SDS011;28637;50.554;7.032;2023-04-02T12:43:56;9.63;;;7.05;;
43014;SDS011;28637;50.554;7.032;2023-04-02T12:49:03;9.68;;;6.25;;
43014;SDS011;28637;50.554;7.032;2023-04-02T12:54:14;8.85;;;6.00;;
43014;SDS011;28637;50.554;7.032;2023-04-02T12:59:27;9.20;;;5.60;;
43014;SDS011;28637;50.554;7.032;2023-04-02T13:04:30;7.38;;;4.65;;
43014;SDS011;28637;50.554;7.032;2023-04-02T13:09:34;7.70;;;6.00;;
43014;SDS011;28637;50.554;7.032;2023-04-02T13:14:42;10.98;;;7.00;;
43014;SDS011;28637;50.554;7.032;2023-04-02T13:19:42;9.37;;;6.97;;
43014;SDS011;28637;50.554;7.032;2023-04-02T13:24:43;11.27;;;7.40;;
43014;SDS011;28637;50.554;7.032;2023-04-02T13:29:44;12.57;;;6.83;;
43014;SDS011;28637;50.554;7.032;2023-04-02T13:34:45;10.50;;;5.68;;
43014;SDS011;28637;50.554;7.032;2023-04-02T13:39:46;11.20;;;6.30;;
43014;SDS011;28637;50.554;7.032;2023-04-02T13:44:47;8.77;;;6.00;;
43014;SDS011;28637;50.554;7.032;2023-04-02T13:49:48;11.27;;;7.22;;
43014;SDS011;28637;50.554;7.032;2023-04-02T13:54:50;9.02;;;6.18;;
43014;SDS011;28637;50.554;7.032;2023-04-02T13:59:55;5.70;;;4.20;;
43014;SDS011;28637;50.554;7.032;2023-04-02T14:05:02;7.27;;;5.70;;
43014;SDS011;28637;50.554;7.032;2023-04-02T14:15:44;9.23;;;7.28;;
43014;SDS011;28637;50.554;7.032;2023-04-02T14:32:33;11.57;;;7.95;;
43014;SDS011;28637;50.554;7.032;2023-04-02T14:43:03;8.80;;;6.35;;
43014;SDS011;28637;50.554;7.032;2023-04-02T14:59:14;5.32;;;4.28;;
43014;SDS011;28637;50.554;7.032;2023-04-02T15:04:36;10.18;;;5.85;;
43014;SDS011;28637;50.554;7.032;2023-04-02T15:09:41;4.65;;;3.92;;
43014;SDS011;28637;50.554;7.032;2023-04-02T15:14:47;7.72;;;5.20;;
43014;SDS011;28637;50.554;7.032;2023-04-02T15:20:01;6.88;;;4.82;;
43014;SDS011;28637;50.554;7.032;2023-04-02T15:25:23;8.27;;;4.43;;
43014;SDS011;28637;50.554;7.032;2023-04-02T15:30:42;8.88;;;5.55;;
43014;SDS011;28637;50.554;7.032;2023-04-02T15:35:48;8.50;;;5.65;;
43014;SDS011;28637;50.554;7.032;2023-04-02T15:57:04;5.85;;;3.95;;
43014;SDS011;28637;50.554;7.032;2023-04-02T16:23:38;7.15;;;5.00;;
43014;SDS011;28637;50.554;7.032;2023-04-02T16:28:42;5.32;;;3.28;;
43014;SDS011;28637;50.554;7.032;2023-04-02T16:44:21;20.88;;;11.52;;
43014;SDS011;28637;50.554;7.032;2023-04-02T16:49:40;23.30;;;12.55;;
43014;SDS011;28637;50.554;7.032;2023-04-02T17:01:07;9.85;;;6.15;;
43014;SDS011;28637;50.554;7.032;2023-04-02T17:05:55;8.23;;;5.15;;
43014;SDS011;28637;50.554;7.032;2023-04-02T17:11:05;7.28;;;4.95;;
43014;SDS011;28637;50.554;7.032;2023-04-02T17:21:12;8.38;;;5.43;;
43014;SDS011;28637;50.554;7.032;2023-04-02T17:26:17;3.92;;;3.10;;
43014;SDS011;28637;50.554;7.032;2023-04-02T17:31:21;4.72;;;3.20;;
43014;SDS011;28637;50.554;7.032;2023-04-02T17:36:30;7.22;;;4.68;;
43014;SDS011;28637;50.554;7.032;2023-04-02T17:41:42;9.95;;;5.63;;
43014;SDS011;28637;50.554;7.032;2023-04-02T18:07:57;6.88;;;3.88;;
43014;SDS011;28637;50.554;7.032;2023-04-02T18:13:06;5.85;;;2.80;;
43014;SDS011;28637;50.554;7.032;2023-04-02T18:18:26;5.22;;;3.15;;
43014;SDS011;28637;50.554;7.032;2023-04-02T18:23:40;4.35;;;2.45;;
43014;SDS011;28637;50.554;7.032;2023-04-02T18:39:30;6.25;;;2.70;;
43014;SDS011;28637;50.554;7.032;2023-04-02T18:44:57;3.70;;;2.00;;
43014;SDS011;28637;50.554;7.032;2023-04-02T18:50:27;2.92;;;2.00;;
43014;SDS011;28637;50.554;7.032;2023-04-02T18:55:36;3.88;;;1.83;;
43014;SDS011;28637;50.554;7.032;2023-04-02T19:00:40;2.65;;;1.55;;
43014;SDS011;28637;50.554;7.032;2023-04-02T19:05:44;4.68;;;1.70;;
43014;SDS011;28637;50.554;7.032;2023-04-02T19:10:51;2.47;;;1.63;;
43014;SDS011;28637;50.554;7.032;2023-04-02T19:16:01;5.13;;;2.00;;
43014;SDS011;28637;50.554;7.032;2023-04-02T19:21:12;3.47;;;2.50;;
43014;SDS011;28637;50.554;7.032;2023-04-02T19:26:16;4.85;;;2.78;;
43014;SDS011;28637;50.554;7.032;2023-04-02T19:47:45;16.88;;;9.95;;
43014;SDS011;28637;50.554;7.032;2023-04-02T19:52:46;5.90;;;4.10;;
43014;SDS011;28637;50.554;7.032;2023-04-02T19:57:47;5.20;;;3.15;;
43014;SDS011;28637;50.554;7.032;2023-04-02T20:02:48;3.65;;;2.80;;
43014;SDS011;28637;50.554;7.032;2023-04-02T20:07:49;3.10;;;2.63;;
43014;SDS011;28637;50.554;7.032;2023-04-02T20:12:50;2.60;;;2.15;;
43014;SDS011;28637;50.554;7.032;2023-04-02T20:17:50;2.80;;;2.10;;
43014;SDS011;28637;50.554;7.032;2023-04-02T20:22:51;3.72;;;2.13;;
43014;SDS011;28637;50.554;7.032;2023-04-02T20:27:52;5.90;;;2.73;;
43014;SDS011;28637;50.554;7.032;2023-04-02T20:32:53;2.83;;;2.00;;
43014;SDS011;28637;50.554;7.032;2023-04-02T20:37:54;3.47;;;2.47;;
43014;SDS011;28637;50.554;7.032;2023-04-02T20:42:55;7.47;;;2.50;;
43014;SDS011;28637;50.554;7.032;2023-04-02T20:47:56;5.53;;;2.67;;
43014;SDS011;28637;50.554;7.032;2023-04-02T20:52:57;3.27;;;2.27;;
43014;SDS011;28637;50.554;7.032;2023-04-02T20:57:59;3.83;;;1.92;;
43014;SDS011;28637;50.554;7.032;2023-04-02T21:03:01;6.57;;;3.60;;
43014;SDS011;28637;50.554;7.032;2023-04-02T21:08:02;8.77;;;6.57;;
43014;SDS011;28637;50.554;7.032;2023-04-02T21:13:03;8.70;;;4.13;;
43014;SDS011;28637;50.554;7.032;2023-04-02T21:18:04;9.25;;;4.90;;
43014;SDS011;28637;50.554;7.032;2023-04-02T21:23:04;5.10;;;2.63;;
43014;SDS011;28637;50.554;7.032;2023-04-02T21:28:05;5.22;;;3.33;;
43014;SDS011;28637;50.554;7.032;2023-04-02T21:33:06;4.57;;;2.80;;
43014;SDS011;28637;50.554;7.032;2023-04-02T21:38:06;3.70;;;2.50;;
43014;SDS011;28637;50.554;7.032;2023-04-02T21:43:07;6.70;;;2.88;;
43014;SDS011;28637;50.554;7.032;2023-04-02T21:48:07;7.20;;;3.10;;
43014;SDS011;28637;50.554;7.032;2023-04-02T21:53:08;3.88;;;2.00;;
43014;SDS011;28637;50.554;7.032;2023-04-02T21:58:09;2.23;;;1.87;;
43014;SDS011;28637;50.554;7.032;2023-04-02T22:03:10;4.50;;;1.90;;
43014;SDS011;28637;50.554;7.032;2023-04-02T22:08:10;3.17;;;1.90;;
43014;SDS011;28637;50.554;7.032;2023-04-02T22:13:12;2.47;;;1.63;;
43014;SDS011;28637;50.554;7.032;2023-04-02T22:18:13;4.17;;;1.80;;
43014;SDS011;28637;50.554;7.032;2023-04-02T22:23:13;4.95;;;2.00;;
43014;SDS011;28637;50.554;7.032;2023-04-02T22:28:15;2.43;;;1.90;;
43014;SDS011;28637;50.554;7.032;2023-04-02T22:33:15;2.57;;;1.57;;
43014;SDS011;28637;50.554;7.032;2023-04-02T22:38:17;2.93;;;1.67;;
43014;SDS011;28637;50.554;7.032;2023-04-02T22:43:18;2.63;;;1.50;;
43014;SDS011;28637;50.554;7.032;2023-04-02T22:48:19;4.67;;;1.60;;
43014;SDS011;28637;50.554;7.032;2023-04-02T22:53:20;3.43;;;1.70;;
43014;SDS011;28637;50.554;7.032;2023-04-02T22:58:21;2.70;;;1.70;;
43014;SDS011;28637;50.554;7.032;2023-04-02T23:03:22;8.80;;;3.35;;
43014;SDS011;28637;50.554;7.032;2023-04-02T23:08:23;4.60;;;2.07;;
43014;SDS011;28637;50.554;7.032;2023-04-02T23:13:24;4.32;;;2.05;;
43014;SDS011;28637;50.554;7.032;2023-04-02T23:18:25;5.93;;;2.30;;
43014;SDS011;28637;50.554;7.032;2023-04-02T23:23:26;5.23;;;2.37;;
43014;SDS011;28637;50.554;7.032;2023-04-02T23:28:27;10.70;;;2.73;;
43014;SDS011;28637;50.554;7.032;2023-04-02T23:33:28;4.03;;;2.00;;
43014;SDS011;28637;50.554;7.032;2023-04-02T23:38:30;4.80;;;2.00;;
43014;SDS011;28637;50.554;7.032;2023-04-02T23:43:31;4.13;;;2.00;;
43014;SDS011;28637;50.554;7.032;2023-04-02T23:48:32;3.20;;;1.77;;
43014;SDS011;28637;50.554;7.032;2023-04-02T23:53:33;3.17;;;1.90;;
43014;SDS011;28637;50.554;7.032;2023-04-02T23:58:34;4.40;;;1.77;;
